sensor_id;sensor_type;location;lat;lon;timestamp;temperature;humidity
41756;DHT22;27435;48.480;9.258;2022-08-05T00:01:48;24.60;69.10
41756;DHT22;27435;48.480;9.258;2022-08-05T00:04:17;24.40;69.50
41756;DHT22;27435;48.480;9.258;2022-08-05T00:06:43;24.30;70.30
41756;DHT22;27435;48.480;9.258;2022-08-05T00:09:09;24.20;70.00
41756;DHT22;27435;48.480;9.258;2022-08-05T00:11:35;24.10;70.30
41756;DHT22;27435;48.480;9.258;2022-08-05T00:14:02;24.10;71.10
41756;DHT22;27435;48.480;9.258;2022-08-05T00:16:27;24.00;70.90
41756;DHT22;27435;48.480;9.258;2022-08-05T00:18:53;23.90;71.00
41756;DHT22;27435;48.480;9.258;2022-08-05T00:21:19;23.90;71.20
41756;DHT22;27435;48.480;9.258;2022-08-05T00:23:46;23.90;71.70
41756;DHT22;27435;48.480;9.258;2022-08-05T00:26:13;24.00;72.20
41756;DHT22;27435;48.480;9.258;2022-08-05T00:28:39;23.90;72.80
41756;DHT22;27435;48.480;9.258;2022-08-05T00:31:06;23.80;73.30
41756;DHT22;27435;48.480;9.258;2022-08-05T00:33:32;23.70;73.60
41756;DHT22;27435;48.480;9.258;2022-08-05T00:35:58;23.70;73.60
41756;DHT22;27435;48.480;9.258;2022-08-05T00:38:24;23.60;73.40
41756;DHT22;27435;48.480;9.258;2022-08-05T00:40:52;23.50;73.70
41756;DHT22;27435;48.480;9.258;2022-08-05T00:43:18;23.30;74.20
41756;DHT22;27435;48.480;9.258;2022-08-05T00:45:44;23.30;73.90
41756;DHT22;27435;48.480;9.258;2022-08-05T00:48:15;23.50;73.40
41756;DHT22;27435;48.480;9.258;2022-08-05T00:50:43;23.40;73.20
41756;DHT22;27435;48.480;9.258;2022-08-05T00:53:09;23.30;74.20
41756;DHT22;27435;48.480;9.258;2022-08-05T00:55:34;23.20;74.70
41756;DHT22;27435;48.480;9.258;2022-08-05T00:58:00;23.10;75.40
41756;DHT22;27435;48.480;9.258;2022-08-05T01:00:27;22.90;76.70
41756;DHT22;27435;48.480;9.258;2022-08-05T01:02:54;22.90;76.40
41756;DHT22;27435;48.480;9.258;2022-08-05T01:05:20;22.70;77.90
41756;DHT22;27435;48.480;9.258;2022-08-05T01:07:46;22.70;78.50
41756;DHT22;27435;48.480;9.258;2022-08-05T01:10:14;22.60;78.20
41756;DHT22;27435;48.480;9.258;2022-08-05T01:12:46;22.70;77.90
41756;DHT22;27435;48.480;9.258;2022-08-05T01:15:16;22.60;77.40
41756;DHT22;27435;48.480;9.258;2022-08-05T01:17:52;22.60;76.70
41756;DHT22;27435;48.480;9.258;2022-08-05T01:23:15;22.40;77.40
41756;DHT22;27435;48.480;9.258;2022-08-05T01:26:01;22.60;77.20
41756;DHT22;27435;48.480;9.258;2022-08-05T01:34:11;22.30;77.60
41756;DHT22;27435;48.480;9.258;2022-08-05T01:36:41;22.30;77.90
41756;DHT22;27435;48.480;9.258;2022-08-05T01:39:09;22.30;78.00
41756;DHT22;27435;48.480;9.258;2022-08-05T01:41:36;22.30;76.70
41756;DHT22;27435;48.480;9.258;2022-08-05T01:44:03;22.50;77.40
41756;DHT22;27435;48.480;9.258;2022-08-05T01:46:32;22.50;77.70
41756;DHT22;27435;48.480;9.258;2022-08-05T01:48:59;22.60;75.80
41756;DHT22;27435;48.480;9.258;2022-08-05T01:51:27;22.90;75.20
41756;DHT22;27435;48.480;9.258;2022-08-05T01:53:54;23.20;72.80
41756;DHT22;27435;48.480;9.258;2022-08-05T01:56:21;23.10;74.60
41756;DHT22;27435;48.480;9.258;2022-08-05T01:58:50;22.90;75.20
41756;DHT22;27435;48.480;9.258;2022-08-05T02:01:18;22.70;76.40
41756;DHT22;27435;48.480;9.258;2022-08-05T02:03:46;22.80;75.60
41756;DHT22;27435;48.480;9.258;2022-08-05T02:06:13;22.70;77.10
41756;DHT22;27435;48.480;9.258;2022-08-05T02:08:39;22.60;78.00
41756;DHT22;27435;48.480;9.258;2022-08-05T02:11:10;22.50;78.50
41756;DHT22;27435;48.480;9.258;2022-08-05T02:13:51;22.40;78.80
41756;DHT22;27435;48.480;9.258;2022-08-05T02:16:33;22.40;78.70
41756;DHT22;27435;48.480;9.258;2022-08-05T02:19:16;22.40;77.90
41756;DHT22;27435;48.480;9.258;2022-08-05T02:21:48;22.40;78.10
41756;DHT22;27435;48.480;9.258;2022-08-05T02:24:19;22.20;78.50
41756;DHT22;27435;48.480;9.258;2022-08-05T02:26:51;22.30;78.20
41756;DHT22;27435;48.480;9.258;2022-08-05T02:29:21;22.40;77.90
41756;DHT22;27435;48.480;9.258;2022-08-05T02:31:49;22.20;78.10
41756;DHT22;27435;48.480;9.258;2022-08-05T02:34:16;22.30;77.90
41756;DHT22;27435;48.480;9.258;2022-08-05T02:36:48;22.30;77.90
41756;DHT22;27435;48.480;9.258;2022-08-05T02:39:17;22.30;77.70
41756;DHT22;27435;48.480;9.258;2022-08-05T02:41:45;22.30;77.70
41756;DHT22;27435;48.480;9.258;2022-08-05T02:44:12;22.40;77.60
41756;DHT22;27435;48.480;9.258;2022-08-05T02:46:40;22.50;76.80
41756;DHT22;27435;48.480;9.258;2022-08-05T02:49:07;22.50;77.00
41756;DHT22;27435;48.480;9.258;2022-08-05T02:51:35;22.40;77.20
41756;DHT22;27435;48.480;9.258;2022-08-05T02:54:02;22.40;77.60
41756;DHT22;27435;48.480;9.258;2022-08-05T02:56:29;22.50;77.60
41756;DHT22;27435;48.480;9.258;2022-08-05T02:58:55;22.50;76.70
41756;DHT22;27435;48.480;9.258;2022-08-05T03:01:26;22.60;76.40
41756;DHT22;27435;48.480;9.258;2022-08-05T03:03:54;22.70;76.30
41756;DHT22;27435;48.480;9.258;2022-08-05T03:06:21;22.70;77.10
41756;DHT22;27435;48.480;9.258;2022-08-05T03:08:48;22.60;77.40
41756;DHT22;27435;48.480;9.258;2022-08-05T03:11:24;22.60;77.30
41756;DHT22;27435;48.480;9.258;2022-08-05T03:13:51;22.60;77.90
41756;DHT22;27435;48.480;9.258;2022-08-05T03:16:17;22.50;78.20
41756;DHT22;27435;48.480;9.258;2022-08-05T03:18:43;22.40;78.50
41756;DHT22;27435;48.480;9.258;2022-08-05T03:21:09;22.40;78.70
41756;DHT22;27435;48.480;9.258;2022-08-05T03:23:35;22.30;79.30
41756;DHT22;27435;48.480;9.258;2022-08-05T03:26:03;22.20;79.30
41756;DHT22;27435;48.480;9.258;2022-08-05T03:28:29;22.30;79.00
41756;DHT22;27435;48.480;9.258;2022-08-05T03:30:57;22.10;79.30
41756;DHT22;27435;48.480;9.258;2022-08-05T03:33:24;22.00;80.00
41756;DHT22;27435;48.480;9.258;2022-08-05T03:35:51;21.80;80.20
41756;DHT22;27435;48.480;9.258;2022-08-05T03:38:18;22.00;80.00
41756;DHT22;27435;48.480;9.258;2022-08-05T03:40:45;22.10;79.80
41756;DHT22;27435;48.480;9.258;2022-08-05T03:43:11;22.00;80.10
41756;DHT22;27435;48.480;9.258;2022-08-05T03:45:37;21.80;80.60
41756;DHT22;27435;48.480;9.258;2022-08-05T03:48:03;22.00;80.60
41756;DHT22;27435;48.480;9.258;2022-08-05T03:53:51;22.10;80.10
41756;DHT22;27435;48.480;9.258;2022-08-05T03:56:37;22.10;80.70
41756;DHT22;27435;48.480;9.258;2022-08-05T03:59:16;22.00;82.40
41756;DHT22;27435;48.480;9.258;2022-08-05T04:01:46;22.10;81.60
41756;DHT22;27435;48.480;9.258;2022-08-05T04:04:14;22.20;80.60
41756;DHT22;27435;48.480;9.258;2022-08-05T04:06:41;22.10;81.10
41756;DHT22;27435;48.480;9.258;2022-08-05T04:09:07;21.80;81.90
41756;DHT22;27435;48.480;9.258;2022-08-05T04:11:34;21.80;81.90
41756;DHT22;27435;48.480;9.258;2022-08-05T04:14:01;21.70;82.70
41756;DHT22;27435;48.480;9.258;2022-08-05T04:16:27;21.60;82.90
41756;DHT22;27435;48.480;9.258;2022-08-05T04:18:53;21.60;82.60
41756;DHT22;27435;48.480;9.258;2022-08-05T04:21:19;21.70;82.30
41756;DHT22;27435;48.480;9.258;2022-08-05T04:23:45;21.70;81.90
41756;DHT22;27435;48.480;9.258;2022-08-05T04:26:12;21.80;82.10
41756;DHT22;27435;48.480;9.258;2022-08-05T04:28:37;21.80;82.70
41756;DHT22;27435;48.480;9.258;2022-08-05T04:31:03;21.80;83.10
41756;DHT22;27435;48.480;9.258;2022-08-05T04:33:29;21.70;83.60
41756;DHT22;27435;48.480;9.258;2022-08-05T04:35:55;21.70;84.00
41756;DHT22;27435;48.480;9.258;2022-08-05T04:38:20;21.80;83.90
41756;DHT22;27435;48.480;9.258;2022-08-05T04:40:46;21.70;84.40
41756;DHT22;27435;48.480;9.258;2022-08-05T04:43:12;21.40;85.60
41756;DHT22;27435;48.480;9.258;2022-08-05T04:45:37;21.10;86.70
41756;DHT22;27435;48.480;9.258;2022-08-05T04:48:07;21.10;87.00
41756;DHT22;27435;48.480;9.258;2022-08-05T04:50:44;21.10;86.40
41756;DHT22;27435;48.480;9.258;2022-08-05T04:53:11;21.20;86.10
41756;DHT22;27435;48.480;9.258;2022-08-05T04:55:37;21.30;85.10
41756;DHT22;27435;48.480;9.258;2022-08-05T04:58:04;21.40;84.50
41756;DHT22;27435;48.480;9.258;2022-08-05T05:00:32;21.40;84.80
41756;DHT22;27435;48.480;9.258;2022-08-05T05:02:58;21.50;85.70
41756;DHT22;27435;48.480;9.258;2022-08-05T05:05:23;21.40;86.10
41756;DHT22;27435;48.480;9.258;2022-08-05T05:07:49;21.40;86.00
41756;DHT22;27435;48.480;9.258;2022-08-05T05:10:14;21.40;86.00
41756;DHT22;27435;48.480;9.258;2022-08-05T05:12:40;21.50;85.80
41756;DHT22;27435;48.480;9.258;2022-08-05T05:15:06;21.60;85.70
41756;DHT22;27435;48.480;9.258;2022-08-05T05:17:39;21.80;85.10
41756;DHT22;27435;48.480;9.258;2022-08-05T05:20:07;21.50;86.20
41756;DHT22;27435;48.480;9.258;2022-08-05T05:22:34;21.40;87.10
41756;DHT22;27435;48.480;9.258;2022-08-05T05:24:59;21.50;85.70
41756;DHT22;27435;48.480;9.258;2022-08-05T05:27:35;21.40;86.00
41756;DHT22;27435;48.480;9.258;2022-08-05T05:30:01;21.40;86.30
41756;DHT22;27435;48.480;9.258;2022-08-05T05:32:27;21.40;86.30
41756;DHT22;27435;48.480;9.258;2022-08-05T05:34:53;21.40;82.70
41756;DHT22;27435;48.480;9.258;2022-08-05T05:37:19;21.50;82.50
41756;DHT22;27435;48.480;9.258;2022-08-05T05:39:45;21.40;82.60
41756;DHT22;27435;48.480;9.258;2022-08-05T05:42:10;21.40;81.70
41756;DHT22;27435;48.480;9.258;2022-08-05T05:44:36;21.40;81.50
41756;DHT22;27435;48.480;9.258;2022-08-05T05:47:01;21.50;81.40
41756;DHT22;27435;48.480;9.258;2022-08-05T05:49:27;21.50;81.00
41756;DHT22;27435;48.480;9.258;2022-08-05T05:51:54;21.50;80.60
41756;DHT22;27435;48.480;9.258;2022-08-05T05:54:20;21.70;79.70
41756;DHT22;27435;48.480;9.258;2022-08-05T05:56:46;21.90;79.50
41756;DHT22;27435;48.480;9.258;2022-08-05T05:59:12;22.20;79.40
41756;DHT22;27435;48.480;9.258;2022-08-05T06:01:40;22.40;78.00
41756;DHT22;27435;48.480;9.258;2022-08-05T06:04:10;22.50;78.00
41756;DHT22;27435;48.480;9.258;2022-08-05T06:06:36;22.70;78.30
41756;DHT22;27435;48.480;9.258;2022-08-05T06:09:05;22.70;78.30
41756;DHT22;27435;48.480;9.258;2022-08-05T06:11:31;22.70;78.50
41756;DHT22;27435;48.480;9.258;2022-08-05T06:13:57;22.90;77.90
41756;DHT22;27435;48.480;9.258;2022-08-05T06:16:23;23.40;76.50
41756;DHT22;27435;48.480;9.258;2022-08-05T06:18:49;24.10;73.60
41756;DHT22;27435;48.480;9.258;2022-08-05T06:21:16;24.40;73.30
41756;DHT22;27435;48.480;9.258;2022-08-05T06:23:42;25.10;69.90
41756;DHT22;27435;48.480;9.258;2022-08-05T06:26:07;25.80;68.10
41756;DHT22;27435;48.480;9.258;2022-08-05T06:28:33;26.20;67.10
41756;DHT22;27435;48.480;9.258;2022-08-05T06:30:59;26.60;66.90
41756;DHT22;27435;48.480;9.258;2022-08-05T06:33:25;26.90;65.80
41756;DHT22;27435;48.480;9.258;2022-08-05T06:35:51;26.90;65.40
41756;DHT22;27435;48.480;9.258;2022-08-05T06:38:16;26.50;66.60
41756;DHT22;27435;48.480;9.258;2022-08-05T06:40:42;26.60;67.00
41756;DHT22;27435;48.480;9.258;2022-08-05T06:43:08;26.70;67.50
41756;DHT22;27435;48.480;9.258;2022-08-05T06:45:34;26.50;67.80
41756;DHT22;27435;48.480;9.258;2022-08-05T06:48:00;26.30;68.50
41756;DHT22;27435;48.480;9.258;2022-08-05T06:50:25;26.10;69.10
41756;DHT22;27435;48.480;9.258;2022-08-05T06:52:52;26.20;69.30
41756;DHT22;27435;48.480;9.258;2022-08-05T06:55:17;26.00;69.60
41756;DHT22;27435;48.480;9.258;2022-08-05T06:57:43;25.70;70.70
41756;DHT22;27435;48.480;9.258;2022-08-05T07:00:10;26.10;70.50
41756;DHT22;27435;48.480;9.258;2022-08-05T07:02:43;26.00;70.70
41756;DHT22;27435;48.480;9.258;2022-08-05T07:05:09;26.10;70.20
41756;DHT22;27435;48.480;9.258;2022-08-05T07:07:35;26.00;70.60
41756;DHT22;27435;48.480;9.258;2022-08-05T07:10:01;26.10;70.90
41756;DHT22;27435;48.480;9.258;2022-08-05T07:12:27;26.30;70.40
41756;DHT22;27435;48.480;9.258;2022-08-05T07:15:11;25.80;71.10
41756;DHT22;27435;48.480;9.258;2022-08-05T07:17:55;26.00;70.80
41756;DHT22;27435;48.480;9.258;2022-08-05T07:20:21;25.90;71.10
41756;DHT22;27435;48.480;9.258;2022-08-05T07:22:46;25.70;71.90
41756;DHT22;27435;48.480;9.258;2022-08-05T07:25:12;25.70;71.70
41756;DHT22;27435;48.480;9.258;2022-08-05T07:27:46;25.80;71.70
41756;DHT22;27435;48.480;9.258;2022-08-05T07:30:15;25.70;71.50
41756;DHT22;27435;48.480;9.258;2022-08-05T07:32:51;25.50;72.60
41756;DHT22;27435;48.480;9.258;2022-08-05T07:35:16;25.70;71.70
41756;DHT22;27435;48.480;9.258;2022-08-05T07:37:42;25.80;70.60
41756;DHT22;27435;48.480;9.258;2022-08-05T07:40:17;25.90;70.70
41756;DHT22;27435;48.480;9.258;2022-08-05T07:42:46;26.00;70.80
41756;DHT22;27435;48.480;9.258;2022-08-05T07:45:12;26.10;69.90
41756;DHT22;27435;48.480;9.258;2022-08-05T07:47:38;25.70;70.50
41756;DHT22;27435;48.480;9.258;2022-08-05T07:50:04;25.90;69.50
41756;DHT22;27435;48.480;9.258;2022-08-05T07:52:30;25.70;70.90
41756;DHT22;27435;48.480;9.258;2022-08-05T07:54:56;25.90;70.10
41756;DHT22;27435;48.480;9.258;2022-08-05T07:57:21;26.00;69.80
41756;DHT22;27435;48.480;9.258;2022-08-05T07:59:47;26.00;69.80
41756;DHT22;27435;48.480;9.258;2022-08-05T08:02:13;26.20;67.80
41756;DHT22;27435;48.480;9.258;2022-08-05T08:04:38;26.00;67.30
41756;DHT22;27435;48.480;9.258;2022-08-05T08:07:04;26.00;67.50
41756;DHT22;27435;48.480;9.258;2022-08-05T08:09:30;26.40;66.30
41756;DHT22;27435;48.480;9.258;2022-08-05T08:11:56;26.40;66.70
41756;DHT22;27435;48.480;9.258;2022-08-05T08:14:24;26.40;66.50
41756;DHT22;27435;48.480;9.258;2022-08-05T08:16:50;26.10;67.50
41756;DHT22;27435;48.480;9.258;2022-08-05T08:19:16;26.20;67.30
41756;DHT22;27435;48.480;9.258;2022-08-05T08:21:41;26.30;66.10
41756;DHT22;27435;48.480;9.258;2022-08-05T08:24:07;26.50;65.90
41756;DHT22;27435;48.480;9.258;2022-08-05T08:26:32;26.60;64.50
41756;DHT22;27435;48.480;9.258;2022-08-05T08:28:59;27.00;64.50
41756;DHT22;27435;48.480;9.258;2022-08-05T08:31:24;27.00;64.00
41756;DHT22;27435;48.480;9.258;2022-08-05T08:33:50;27.30;64.50
41756;DHT22;27435;48.480;9.258;2022-08-05T08:36:16;27.10;64.40
41756;DHT22;27435;48.480;9.258;2022-08-05T08:38:41;27.00;63.60
41756;DHT22;27435;48.480;9.258;2022-08-05T08:41:09;26.80;64.20
41756;DHT22;27435;48.480;9.258;2022-08-05T08:43:37;26.90;64.50
41756;DHT22;27435;48.480;9.258;2022-08-05T08:46:05;27.10;64.30
41756;DHT22;27435;48.480;9.258;2022-08-05T08:48:31;27.40;63.70
41756;DHT22;27435;48.480;9.258;2022-08-05T08:50:59;27.60;63.10
41756;DHT22;27435;48.480;9.258;2022-08-05T08:53:27;27.80;62.30
41756;DHT22;27435;48.480;9.258;2022-08-05T08:55:55;27.50;62.10
41756;DHT22;27435;48.480;9.258;2022-08-05T08:58:21;27.20;63.40
41756;DHT22;27435;48.480;9.258;2022-08-05T09:00:47;27.70;62.00
41756;DHT22;27435;48.480;9.258;2022-08-05T09:03:13;27.90;61.60
41756;DHT22;27435;48.480;9.258;2022-08-05T09:05:39;27.90;62.00
41756;DHT22;27435;48.480;9.258;2022-08-05T09:08:04;28.20;61.50
41756;DHT22;27435;48.480;9.258;2022-08-05T09:10:30;28.20;60.20
41756;DHT22;27435;48.480;9.258;2022-08-05T09:12:56;28.40;59.60
41756;DHT22;27435;48.480;9.258;2022-08-05T09:15:22;28.40;59.60
41756;DHT22;27435;48.480;9.258;2022-08-05T09:17:49;28.20;59.80
41756;DHT22;27435;48.480;9.258;2022-08-05T09:20:15;28.10;60.30
41756;DHT22;27435;48.480;9.258;2022-08-05T09:23:10;28.70;59.00
41756;DHT22;27435;48.480;9.258;2022-08-05T09:25:41;28.40;59.00
41756;DHT22;27435;48.480;9.258;2022-08-05T09:28:17;27.70;60.40
41756;DHT22;27435;48.480;9.258;2022-08-05T09:30:55;27.80;61.40
41756;DHT22;27435;48.480;9.258;2022-08-05T09:33:22;27.70;61.90
41756;DHT22;27435;48.480;9.258;2022-08-05T09:38:24;28.10;61.60
41756;DHT22;27435;48.480;9.258;2022-08-05T09:40:50;28.30;60.30
41756;DHT22;27435;48.480;9.258;2022-08-05T09:43:32;28.50;59.60
41756;DHT22;27435;48.480;9.258;2022-08-05T09:45:58;28.80;59.20
41756;DHT22;27435;48.480;9.258;2022-08-05T09:48:32;29.00;57.30
41756;DHT22;27435;48.480;9.258;2022-08-05T09:53:28;29.10;56.70
41756;DHT22;27435;48.480;9.258;2022-08-05T09:56:00;28.70;58.10
41756;DHT22;27435;48.480;9.258;2022-08-05T09:58:27;28.40;58.10
41756;DHT22;27435;48.480;9.258;2022-08-05T10:00:53;28.70;59.20
41756;DHT22;27435;48.480;9.258;2022-08-05T10:03:20;28.70;57.40
41756;DHT22;27435;48.480;9.258;2022-08-05T10:05:45;28.70;57.80
41756;DHT22;27435;48.480;9.258;2022-08-05T10:08:11;28.70;58.40
41756;DHT22;27435;48.480;9.258;2022-08-05T10:13:09;28.60;58.20
41756;DHT22;27435;48.480;9.258;2022-08-05T10:15:38;28.70;58.30
41756;DHT22;27435;48.480;9.258;2022-08-05T10:21:07;29.00;57.40
41756;DHT22;27435;48.480;9.258;2022-08-05T10:23:35;29.00;57.70
41756;DHT22;27435;48.480;9.258;2022-08-05T10:26:10;28.70;56.90
41756;DHT22;27435;48.480;9.258;2022-08-05T10:28:37;29.20;56.50
41756;DHT22;27435;48.480;9.258;2022-08-05T10:31:03;29.40;55.70
41756;DHT22;27435;48.480;9.258;2022-08-05T10:33:31;29.20;56.60
41756;DHT22;27435;48.480;9.258;2022-08-05T10:35:59;29.30;56.30
41756;DHT22;27435;48.480;9.258;2022-08-05T10:38:26;29.40;56.40
41756;DHT22;27435;48.480;9.258;2022-08-05T10:43:33;29.50;56.20
41756;DHT22;27435;48.480;9.258;2022-08-05T10:46:03;29.80;55.10
41756;DHT22;27435;48.480;9.258;2022-08-05T10:48:31;30.10;54.20
41756;DHT22;27435;48.480;9.258;2022-08-05T10:51:12;30.20;54.00
41756;DHT22;27435;48.480;9.258;2022-08-05T10:56:14;29.80;54.20
41756;DHT22;27435;48.480;9.258;2022-08-05T10:58:48;29.70;54.60
41756;DHT22;27435;48.480;9.258;2022-08-05T11:01:14;29.90;53.90
41756;DHT22;27435;48.480;9.258;2022-08-05T11:06:27;29.50;54.70
41756;DHT22;27435;48.480;9.258;2022-08-05T11:09:21;29.80;55.00
41756;DHT22;27435;48.480;9.258;2022-08-05T11:11:48;29.40;54.90
41756;DHT22;27435;48.480;9.258;2022-08-05T11:14:29;29.50;54.20
41756;DHT22;27435;48.480;9.258;2022-08-05T11:17:29;29.50;55.50
41756;DHT22;27435;48.480;9.258;2022-08-05T11:19:57;29.80;54.80
41756;DHT22;27435;48.480;9.258;2022-08-05T11:22:46;29.60;54.30
41756;DHT22;27435;48.480;9.258;2022-08-05T11:36:15;29.40;54.90
41756;DHT22;27435;48.480;9.258;2022-08-05T11:41:26;29.60;55.00
41756;DHT22;27435;48.480;9.258;2022-08-05T11:46:52;30.10;54.80
41756;DHT22;27435;48.480;9.258;2022-08-05T11:49:21;30.30;53.80
41756;DHT22;27435;48.480;9.258;2022-08-05T11:51:49;30.20;54.40
41756;DHT22;27435;48.480;9.258;2022-08-05T11:54:23;30.20;54.40
41756;DHT22;27435;48.480;9.258;2022-08-05T11:56:54;29.80;54.00
41756;DHT22;27435;48.480;9.258;2022-08-05T11:59:25;29.60;55.20
41756;DHT22;27435;48.480;9.258;2022-08-05T12:02:07;30.10;53.90
41756;DHT22;27435;48.480;9.258;2022-08-05T12:04:45;30.30;53.40
41756;DHT22;27435;48.480;9.258;2022-08-05T12:07:16;30.40;53.30
41756;DHT22;27435;48.480;9.258;2022-08-05T12:09:52;30.40;53.30
41756;DHT22;27435;48.480;9.258;2022-08-05T12:12:25;30.40;52.90
41756;DHT22;27435;48.480;9.258;2022-08-05T12:14:54;30.60;53.50
41756;DHT22;27435;48.480;9.258;2022-08-05T12:17:20;31.10;52.50
41756;DHT22;27435;48.480;9.258;2022-08-05T12:19:50;31.10;51.40
41756;DHT22;27435;48.480;9.258;2022-08-05T12:22:26;31.00;52.60
41756;DHT22;27435;48.480;9.258;2022-08-05T12:24:54;31.20;52.10
41756;DHT22;27435;48.480;9.258;2022-08-05T12:27:28;31.20;51.60
41756;DHT22;27435;48.480;9.258;2022-08-05T12:30:11;31.20;51.40
41756;DHT22;27435;48.480;9.258;2022-08-05T12:32:45;31.60;51.40
41756;DHT22;27435;48.480;9.258;2022-08-05T12:35:12;31.90;50.40
41756;DHT22;27435;48.480;9.258;2022-08-05T12:37:40;31.80;50.10
41756;DHT22;27435;48.480;9.258;2022-08-05T12:40:11;32.00;50.20
41756;DHT22;27435;48.480;9.258;2022-08-05T12:42:38;32.40;49.60
41756;DHT22;27435;48.480;9.258;2022-08-05T12:45:08;32.20;49.20
41756;DHT22;27435;48.480;9.258;2022-08-05T12:47:37;32.00;49.80
41756;DHT22;27435;48.480;9.258;2022-08-05T12:50:16;31.90;49.90
41756;DHT22;27435;48.480;9.258;2022-08-05T12:52:54;32.00;50.20
41756;DHT22;27435;48.480;9.258;2022-08-05T12:55:23;32.20;49.50
41756;DHT22;27435;48.480;9.258;2022-08-05T12:57:50;32.40;49.20
41756;DHT22;27435;48.480;9.258;2022-08-05T13:00:21;32.60;48.10
41756;DHT22;27435;48.480;9.258;2022-08-05T13:02:51;32.50;49.20
41756;DHT22;27435;48.480;9.258;2022-08-05T13:05:17;32.80;48.40
41756;DHT22;27435;48.480;9.258;2022-08-05T13:07:44;32.90;48.10
41756;DHT22;27435;48.480;9.258;2022-08-05T13:10:12;32.40;48.70
41756;DHT22;27435;48.480;9.258;2022-08-05T13:12:40;32.60;49.10
41756;DHT22;27435;48.480;9.258;2022-08-05T13:15:09;32.80;48.10
41756;DHT22;27435;48.480;9.258;2022-08-05T13:17:35;32.70;47.90
41756;DHT22;27435;48.480;9.258;2022-08-05T13:22:34;32.70;48.30
41756;DHT22;27435;48.480;9.258;2022-08-05T13:25:06;32.80;48.20
41756;DHT22;27435;48.480;9.258;2022-08-05T13:27:35;33.00;48.70
41756;DHT22;27435;48.480;9.258;2022-08-05T13:30:01;32.80;49.10
41756;DHT22;27435;48.480;9.258;2022-08-05T13:32:27;33.00;48.10
41756;DHT22;27435;48.480;9.258;2022-08-05T13:34:54;33.00;48.10
41756;DHT22;27435;48.480;9.258;2022-08-05T13:37:20;32.80;48.30
41756;DHT22;27435;48.480;9.258;2022-08-05T13:39:50;33.40;48.50
41756;DHT22;27435;48.480;9.258;2022-08-05T13:42:18;33.20;47.90
41756;DHT22;27435;48.480;9.258;2022-08-05T13:44:45;33.20;47.50
41756;DHT22;27435;48.480;9.258;2022-08-05T13:47:11;32.70;48.20
41756;DHT22;27435;48.480;9.258;2022-08-05T13:49:37;32.80;48.20
41756;DHT22;27435;48.480;9.258;2022-08-05T13:52:31;33.10;48.10
41756;DHT22;27435;48.480;9.258;2022-08-05T13:54:57;33.30;47.20
41756;DHT22;27435;48.480;9.258;2022-08-05T13:57:23;33.80;46.30
41756;DHT22;27435;48.480;9.258;2022-08-05T13:59:49;33.10;47.20
41756;DHT22;27435;48.480;9.258;2022-08-05T14:02:16;33.50;47.20
41756;DHT22;27435;48.480;9.258;2022-08-05T14:04:46;34.10;46.20
41756;DHT22;27435;48.480;9.258;2022-08-05T14:07:33;33.80;46.10
41756;DHT22;27435;48.480;9.258;2022-08-05T14:10:04;34.20;46.20
41756;DHT22;27435;48.480;9.258;2022-08-05T14:12:33;34.20;45.50
41756;DHT22;27435;48.480;9.258;2022-08-05T14:14:58;32.90;47.50
41756;DHT22;27435;48.480;9.258;2022-08-05T14:17:24;31.80;49.40
41756;DHT22;27435;48.480;9.258;2022-08-05T14:19:51;31.60;50.30
41756;DHT22;27435;48.480;9.258;2022-08-05T14:22:17;32.00;49.60
41756;DHT22;27435;48.480;9.258;2022-08-05T14:24:43;32.40;49.20
41756;DHT22;27435;48.480;9.258;2022-08-05T14:27:08;32.00;50.20
41756;DHT22;27435;48.480;9.258;2022-08-05T14:29:34;31.50;50.80
41756;DHT22;27435;48.480;9.258;2022-08-05T14:32:00;31.40;50.90
41756;DHT22;27435;48.480;9.258;2022-08-05T14:34:25;31.20;51.50
41756;DHT22;27435;48.480;9.258;2022-08-05T14:36:51;31.20;51.60
41756;DHT22;27435;48.480;9.258;2022-08-05T14:39:17;31.30;52.00
41756;DHT22;27435;48.480;9.258;2022-08-05T14:41:42;31.00;52.10
41756;DHT22;27435;48.480;9.258;2022-08-05T14:44:08;30.90;52.60
41756;DHT22;27435;48.480;9.258;2022-08-05T14:46:34;30.90;52.80
41756;DHT22;27435;48.480;9.258;2022-08-05T14:49:01;30.70;53.10
41756;DHT22;27435;48.480;9.258;2022-08-05T14:51:27;30.40;53.80
41756;DHT22;27435;48.480;9.258;2022-08-05T14:53:53;30.30;53.90
41756;DHT22;27435;48.480;9.258;2022-08-05T14:56:19;30.50;54.20
41756;DHT22;27435;48.480;9.258;2022-08-05T14:58:45;30.70;53.20
41756;DHT22;27435;48.480;9.258;2022-08-05T15:01:11;30.90;52.90
41756;DHT22;27435;48.480;9.258;2022-08-05T15:03:36;31.00;52.70
41756;DHT22;27435;48.480;9.258;2022-08-05T15:06:03;30.90;53.20
41756;DHT22;27435;48.480;9.258;2022-08-05T15:08:29;30.60;53.60
41756;DHT22;27435;48.480;9.258;2022-08-05T15:10:55;31.00;54.00
41756;DHT22;27435;48.480;9.258;2022-08-05T15:13:20;31.00;53.00
41756;DHT22;27435;48.480;9.258;2022-08-05T15:15:46;30.70;53.60
41756;DHT22;27435;48.480;9.258;2022-08-05T15:18:11;30.80;53.20
41756;DHT22;27435;48.480;9.258;2022-08-05T15:20:37;30.60;53.70
41756;DHT22;27435;48.480;9.258;2022-08-05T15:23:08;30.70;53.90
41756;DHT22;27435;48.480;9.258;2022-08-05T15:25:34;30.70;54.10
41756;DHT22;27435;48.480;9.258;2022-08-05T15:28:00;31.10;53.80
41756;DHT22;27435;48.480;9.258;2022-08-05T15:30:26;31.10;53.10
41756;DHT22;27435;48.480;9.258;2022-08-05T15:32:53;31.00;54.10
41756;DHT22;27435;48.480;9.258;2022-08-05T15:35:20;31.00;53.00
41756;DHT22;27435;48.480;9.258;2022-08-05T15:37:46;30.60;53.80
41756;DHT22;27435;48.480;9.258;2022-08-05T15:40:12;30.50;53.70
41756;DHT22;27435;48.480;9.258;2022-08-05T15:42:37;30.30;54.50
41756;DHT22;27435;48.480;9.258;2022-08-05T15:45:03;30.00;58.20
41756;DHT22;27435;48.480;9.258;2022-08-05T15:47:29;29.20;61.60
41756;DHT22;27435;48.480;9.258;2022-08-05T15:49:55;28.90;62.20
41756;DHT22;27435;48.480;9.258;2022-08-05T15:52:21;28.90;62.50
41756;DHT22;27435;48.480;9.258;2022-08-05T15:54:46;29.10;61.20
41756;DHT22;27435;48.480;9.258;2022-08-05T15:57:12;28.90;61.00
41756;DHT22;27435;48.480;9.258;2022-08-05T15:59:39;29.30;60.70
41756;DHT22;27435;48.480;9.258;2022-08-05T16:02:06;29.90;59.20
41756;DHT22;27435;48.480;9.258;2022-08-05T16:04:33;30.10;61.80
41756;DHT22;27435;48.480;9.258;2022-08-05T16:06:59;29.80;60.20
41756;DHT22;27435;48.480;9.258;2022-08-05T16:09:24;29.90;59.30
41756;DHT22;27435;48.480;9.258;2022-08-05T16:11:51;29.80;60.00
41756;DHT22;27435;48.480;9.258;2022-08-05T16:14:17;30.10;58.70
41756;DHT22;27435;48.480;9.258;2022-08-05T16:16:42;31.30;57.20
41756;DHT22;27435;48.480;9.258;2022-08-05T16:19:08;31.30;55.60
41756;DHT22;27435;48.480;9.258;2022-08-05T16:21:33;31.70;55.20
41756;DHT22;27435;48.480;9.258;2022-08-05T16:23:59;31.30;55.80
41756;DHT22;27435;48.480;9.258;2022-08-05T16:26:25;30.90;57.10